Time;durP1;ratioP1;P1;durP2;ratioP2;P2;SDS_P1;SDS_P2;PMS_P1;PMS_P2;Temp;Humidity;BMP_temperature;BMP_pressure;BME280_temperature;BME280_humidity;BME280_pressure;Samples;Min_cycle;Max_cycle;Signal;HPM_P1;HPM_P2
2021/11/05 00:00:26;;;;;;;;;0.00;0.00;;;;;;;;5081269;27;45550;-67
2021/11/05 00:02:54;;;;;;;;;1.50;0.50;;;;;;;;5079843;27;45568;-67
2021/11/05 00:05:21;;;;;;;;;2.00;0.00;;;;;;;;5076980;27;45553;-67
2021/11/05 00:07:46;;;;;;;;;1.00;1.00;;;;;;;;5085003;27;46469;-67
2021/11/05 00:10:11;;;;;;;;;3.00;1.00;;;;;;;;5083502;27;45436;-67
2021/11/05 00:12:36;;;;;;;;;0.00;0.00;;;;;;;;5080192;27;45345;-67
2021/11/05 00:15:02;;;;;;;;;2.00;1.00;;;;;;;;5078516;27;45972;-67
2021/11/05 00:17:27;;;;;;;;;1.00;1.00;;;;;;;;5080053;27;45428;-67
2021/11/05 00:19:53;;;;;;;;;1.00;1.00;;;;;;;;5083343;27;45338;-67
2021/11/05 00:22:18;;;;;;;;;2.33;2.00;;;;;;;;5058455;28;45379;-67
2021/11/05 00:24:43;;;;;;;;;1.33;1.00;;;;;;;;5081350;27;46133;-67
2021/11/05 00:27:08;;;;;;;;;4.67;2.67;;;;;;;;5078872;27;45290;-67
2021/11/05 00:29:33;;;;;;;;;2.67;2.00;;;;;;;;5082704;27;45433;-67
2021/11/05 00:31:58;;;;;;;;;2.33;1.33;;;;;;;;5086823;27;45289;-67
2021/11/05 00:34:24;;;;;;;;;2.00;2.00;;;;;;;;5081363;27;46253;-67
2021/11/05 00:36:49;;;;;;;;;3.00;2.00;;;;;;;;5086908;27;45361;-67
2021/11/05 00:39:15;;;;;;;;;2.00;1.50;;;;;;;;5080134;27;45440;-67
2021/11/05 00:41:40;;;;;;;;;5.25;3.00;;;;;;;;5080386;27;46635;-67
2021/11/05 00:44:05;;;;;;;;;3.67;2.33;;;;;;;;5077337;27;47194;-67
2021/11/05 00:46:30;;;;;;;;;5.00;2.00;;;;;;;;5074500;27;45453;-67
2021/11/05 00:48:57;;;;;;;;;3.00;1.67;;;;;;;;5079387;27;45435;-67
2021/11/05 00:51:22;;;;;;;;;2.00;2.00;;;;;;;;5080282;27;45396;-67
2021/11/05 00:53:47;;;;;;;;;4.00;2.50;;;;;;;;5079410;27;45433;-67
2021/11/05 00:56:12;;;;;;;;;2.67;2.67;;;;;;;;5078644;27;45508;-67
2021/11/05 00:58:38;;;;;;;;;3.00;1.00;;;;;;;;5084030;27;45390;-67
2021/11/05 01:01:03;;;;;;;;;2.00;2.00;;;;;;;;5076563;27;45342;-67
2021/11/05 01:03:28;;;;;;;;;2.67;2.00;;;;;;;;5087949;27;46430;-67
2021/11/05 01:05:53;;;;;;;;;1.33;1.33;;;;;;;;5080972;27;45298;-67
2021/11/05 01:08:18;;;;;;;;;2.00;2.00;;;;;;;;5082117;27;45435;-67
2021/11/05 01:10:43;;;;;;;;;2.00;1.00;;;;;;;;5080547;27;45543;-67
2021/11/05 01:13:09;;;;;;;;;2.67;2.00;;;;;;;;5090478;27;46747;-67
2021/11/05 01:15:35;;;;;;;;;3.67;2.00;;;;;;;;5080264;27;45818;-67
2021/11/05 01:18:00;;;;;;;;;3.00;1.75;;;;;;;;5066257;27;45697;-67
2021/11/05 01:20:25;;;;;;;;;3.67;2.33;;;;;;;;5071323;27;45499;-67
2021/11/05 01:22:51;;;;;;;;;5.50;2.00;;;;;;;;5075929;27;45448;-67
2021/11/05 01:25:16;;;;;;;;;5.33;3.00;;;;;;;;5074811;27;45306;-67
2021/11/05 01:27:42;;;;;;;;;5.00;4.00;;;;;;;;5079989;27;45273;-67
2021/11/05 01:30:08;;;;;;;;;3.50;3.00;;;;;;;;5084099;27;45496;-67
2021/11/05 01:32:33;;;;;;;;;3.50;3.50;;;;;;;;5076311;27;45822;-66
2021/11/05 01:34:58;;;;;;;;;4.00;3.50;;;;;;;;5075254;27;45560;-67
2021/11/05 01:37:24;;;;;;;;;8.33;3.00;;;;;;;;5087550;27;45490;-67
2021/11/05 01:39:49;;;;;;;;;3.25;2.00;;;;;;;;5080252;27;45421;-67
2021/11/05 01:42:14;;;;;;;;;2.33;2.33;;;;;;;;5090431;27;46215;-67
2021/11/05 01:44:39;;;;;;;;;4.00;2.33;;;;;;;;5085181;27;45490;-67
2021/11/05 01:47:05;;;;;;;;;3.00;2.00;;;;;;;;5087688;27;45500;-67
2021/11/05 01:49:30;;;;;;;;;5.00;3.00;;;;;;;;5075976;27;45606;-67
2021/11/05 01:51:56;;;;;;;;;2.00;2.00;;;;;;;;5077426;27;46408;-67
2021/11/05 01:54:22;;;;;;;;;2.00;2.00;;;;;;;;5079508;27;45885;-67
2021/11/05 01:56:48;;;;;;;;;3.75;2.00;;;;;;;;5083616;27;45368;-67
2021/11/05 01:59:23;;;;;;;;;3.00;3.00;;;;;;;;5085859;27;45266;-67
2021/11/05 02:01:48;;;;;;;;;4.25;3.25;;;;;;;;5071572;27;45623;-67
2021/11/05 02:04:13;;;;;;;;;2.50;2.25;;;;;;;;5071125;27;45515;-67
2021/11/05 02:06:42;;;;;;;;;2.67;2.00;;;;;;;;5108149;27;45522;-67
2021/11/05 02:09:08;;;;;;;;;3.00;2.00;;;;;;;;5080018;27;45377;-67
2021/11/05 02:11:33;;;;;;;;;3.25;2.00;;;;;;;;5078879;27;45503;-67
2021/11/05 02:14:01;;;;;;;;;1.75;1.00;;;;;;;;5077788;27;45336;-67
2021/11/05 02:16:27;;;;;;;;;3.25;1.00;;;;;;;;5072572;27;45517;-67
2021/11/05 02:18:52;;;;;;;;;3.75;2.50;;;;;;;;5075964;27;45893;-67
2021/11/05 02:21:18;;;;;;;;;6.75;2.25;;;;;;;;5078470;27;46124;-67
2021/11/05 02:23:44;;;;;;;;;3.00;2.00;;;;;;;;5081777;27;45266;-67
2021/11/05 02:26:09;;;;;;;;;4.00;2.75;;;;;;;;5074174;27;45531;-67
2021/11/05 02:28:36;;;;;;;;;3.00;3.00;;;;;;;;5086731;27;45338;-67
2021/11/05 02:31:01;;;;;;;;;3.75;2.00;;;;;;;;5081058;27;45492;-67
2021/11/05 02:33:26;;;;;;;;;2.67;2.67;;;;;;;;5091714;27;45385;-67
2021/11/05 02:35:52;;;;;;;;;3.00;1.00;;;;;;;;5081799;27;45443;-67
2021/11/05 02:38:18;;;;;;;;;2.75;2.75;;;;;;;;5080103;27;45441;-67
2021/11/05 02:40:43;;;;;;;;;1.75;1.00;;;;;;;;5082083;27;45533;-67
2021/11/05 02:43:09;;;;;;;;;3.75;2.00;;;;;;;;5075645;27;45320;-67
2021/11/05 02:45:34;;;;;;;;;6.00;2.00;;;;;;;;5081162;27;45448;-67
2021/11/05 02:47:59;;;;;;;;;2.25;1.25;;;;;;;;5074671;27;45521;-67
2021/11/05 02:50:24;;;;;;;;;2.33;2.00;;;;;;;;5084056;27;45436;-67
2021/11/05 02:52:49;;;;;;;;;2.00;2.00;;;;;;;;5077223;27;45458;-67
2021/11/05 02:55:15;;;;;;;;;4.67;2.00;;;;;;;;5076280;27;45460;-67
2021/11/05 02:57:40;;;;;;;;;5.00;3.75;;;;;;;;5073172;27;45486;-67
2021/11/05 03:00:07;;;;;;;;;4.67;2.67;;;;;;;;5084934;27;45592;-67
2021/11/05 03:02:32;;;;;;;;;3.50;2.00;;;;;;;;5084542;27;45450;-67
2021/11/05 03:04:57;;;;;;;;;3.00;3.00;;;;;;;;5078340;27;46487;-67
2021/11/05 03:07:23;;;;;;;;;2.00;1.33;;;;;;;;5092240;27;45335;-67
2021/11/05 03:09:48;;;;;;;;;3.00;2.00;;;;;;;;5089518;27;46528;-67
2021/11/05 03:12:13;;;;;;;;;2.00;2.00;;;;;;;;5091164;27;45487;-67
2021/11/05 03:14:39;;;;;;;;;2.33;2.33;;;;;;;;5087461;27;47205;-67
2021/11/05 03:17:05;;;;;;;;;6.75;3.00;;;;;;;;5082382;27;45391;-67
2021/11/05 03:19:30;;;;;;;;;3.50;2.25;;;;;;;;5083977;27;45427;-67
2021/11/05 03:21:56;;;;;;;;;2.00;1.00;;;;;;;;5076641;27;45496;-67
2021/11/05 03:24:21;;;;;;;;;3.50;1.75;;;;;;;;5077086;28;45291;-67
2021/11/05 03:26:46;;;;;;;;;2.00;2.00;;;;;;;;5073164;27;45724;-67
2021/11/05 03:29:12;;;;;;;;;3.50;1.50;;;;;;;;5073067;27;45754;-67
2021/11/05 03:31:37;;;;;;;;;4.00;2.00;;;;;;;;5076418;27;45523;-67
2021/11/05 03:34:03;;;;;;;;;3.00;2.00;;;;;;;;5080123;27;45520;-67
2021/11/05 03:36:28;;;;;;;;;2.25;1.00;;;;;;;;5079370;27;45577;-67
2021/11/05 03:38:54;;;;;;;;;3.75;2.00;;;;;;;;5079292;27;46117;-67
2021/11/05 03:41:19;;;;;;;;;6.00;2.00;;;;;;;;5075204;27;45587;-67
2021/11/05 03:43:45;;;;;;;;;2.25;2.25;;;;;;;;5075907;27;45798;-67
2021/11/05 03:46:10;;;;;;;;;4.50;2.00;;;;;;;;5070123;28;45374;-67
2021/11/05 03:48:38;;;;;;;;;6.25;2.25;;;;;;;;5076651;27;46720;-67
2021/11/05 03:51:03;;;;;;;;;3.00;3.00;;;;;;;;5076460;27;45815;-67
2021/11/05 03:53:29;;;;;;;;;1.33;1.33;;;;;;;;5074288;28;45279;-67
2021/11/05 03:55:54;;;;;;;;;2.50;2.00;;;;;;;;5072754;28;45421;-67
2021/11/05 03:58:19;;;;;;;;;3.00;2.75;;;;;;;;5083305;27;45524;-67
2021/11/05 04:00:44;;;;;;;;;1.33;0.67;;;;;;;;5071917;28;45397;-67
2021/11/05 04:03:10;;;;;;;;;1.00;1.00;;;;;;;;5075465;27;45446;-67
2021/11/05 04:05:35;;;;;;;;;2.00;1.00;;;;;;;;5074975;28;45465;-67
2021/11/05 04:08:00;;;;;;;;;1.00;1.00;;;;;;;;5068892;28;46111;-67
2021/11/05 04:10:25;;;;;;;;;4.00;2.33;;;;;;;;5074153;28;45445;-67
2021/11/05 04:12:51;;;;;;;;;4.67;2.33;;;;;;;;5075973;28;45317;-67
2021/11/05 04:15:16;;;;;;;;;5.00;2.00;;;;;;;;5056800;28;45534;-67
2021/11/05 04:17:41;;;;;;;;;2.00;2.00;;;;;;;;5074588;28;46411;-67
2021/11/05 04:20:07;;;;;;;;;2.75;1.00;;;;;;;;5079931;27;45436;-67
2021/11/05 04:22:32;;;;;;;;;2.00;2.00;;;;;;;;5076981;27;45376;-67
2021/11/05 04:24:57;;;;;;;;;2.00;2.00;;;;;;;;5084731;27;46091;-67
2021/11/05 04:27:23;;;;;;;;;2.67;2.33;;;;;;;;5090830;27;45402;-67
2021/11/05 04:29:48;;;;;;;;;2.67;2.00;;;;;;;;5083197;27;45684;-67
2021/11/05 04:32:13;;;;;;;;;1.50;1.25;;;;;;;;5078438;27;45377;-67
2021/11/05 04:34:38;;;;;;;;;3.00;2.00;;;;;;;;5083159;27;45528;-67
2021/11/05 04:37:04;;;;;;;;;2.33;1.00;;;;;;;;5076875;27;45528;-67
2021/11/05 04:39:29;;;;;;;;;1.50;1.50;;;;;;;;5075311;27;45577;-67
2021/11/05 04:41:54;;;;;;;;;4.67;2.00;;;;;;;;5082902;27;45478;-67
2021/11/05 04:44:19;;;;;;;;;2.50;2.50;;;;;;;;5080842;27;45389;-67
2021/11/05 04:46:46;;;;;;;;;1.33;1.00;;;;;;;;5082277;27;45346;-67
2021/11/05 04:49:11;;;;;;;;;1.75;1.75;;;;;;;;5090581;27;45380;-67
2021/11/05 04:51:36;;;;;;;;;4.33;3.00;;;;;;;;5076074;27;46651;-67
2021/11/05 04:54:02;;;;;;;;;2.33;2.00;;;;;;;;5080663;27;45504;-67
2021/11/05 04:56:27;;;;;;;;;2.25;2.25;;;;;;;;5078475;27;45405;-67
2021/11/05 04:58:53;;;;;;;;;2.67;2.00;;;;;;;;5079755;27;45421;-67
2021/11/05 05:01:18;;;;;;;;;1.00;1.00;;;;;;;;5078947;27;45521;-67
2021/11/05 05:03:44;;;;;;;;;3.25;1.00;;;;;;;;5078986;27;45349;-67
2021/11/05 05:06:09;;;;;;;;;2.50;1.25;;;;;;;;5086616;27;45749;-67
2021/11/05 05:08:34;;;;;;;;;2.00;2.00;;;;;;;;5090271;27;45491;-67
2021/11/05 05:10:59;;;;;;;;;3.00;2.00;;;;;;;;5080720;27;45370;-67
2021/11/05 05:13:25;;;;;;;;;2.00;2.00;;;;;;;;5077779;27;45484;-67
2021/11/05 05:15:50;;;;;;;;;2.00;1.67;;;;;;;;5080701;27;46838;-67
2021/11/05 05:18:15;;;;;;;;;2.33;1.00;;;;;;;;5083227;27;45769;-67
2021/11/05 05:20:41;;;;;;;;;4.75;1.75;;;;;;;;5072463;27;45508;-67
2021/11/05 05:23:06;;;;;;;;;5.25;2.00;;;;;;;;5053972;28;45890;-67
2021/11/05 05:25:32;;;;;;;;;1.67;1.00;;;;;;;;5073081;28;46797;-67
2021/11/05 05:27:57;;;;;;;;;2.00;2.00;;;;;;;;5082964;27;45553;-67
2021/11/05 05:30:22;;;;;;;;;2.67;1.33;;;;;;;;5076598;27;45462;-67
2021/11/05 05:32:48;;;;;;;;;3.00;2.00;;;;;;;;5073882;27;45790;-67
2021/11/05 05:35:14;;;;;;;;;4.00;2.25;;;;;;;;5071329;27;46503;-67
2021/11/05 05:37:39;;;;;;;;;2.75;1.75;;;;;;;;5078033;27;45362;-67
2021/11/05 05:40:05;;;;;;;;;2.00;1.50;;;;;;;;5075078;27;45479;-67
2021/11/05 05:42:31;;;;;;;;;3.75;1.25;;;;;;;;5055099;28;45386;-67
2021/11/05 05:44:56;;;;;;;;;3.67;2.00;;;;;;;;5073023;27;46815;-67
2021/11/05 05:47:21;;;;;;;;;4.33;2.00;;;;;;;;5072961;28;45482;-67
2021/11/05 05:49:49;;;;;;;;;4.00;3.00;;;;;;;;5073297;27;45281;-67
2021/11/05 05:52:14;;;;;;;;;6.50;3.00;;;;;;;;5063989;27;45445;-67
2021/11/05 05:54:39;;;;;;;;;2.50;1.00;;;;;;;;5074635;28;45646;-67
2021/11/05 05:57:05;;;;;;;;;2.00;1.00;;;;;;;;5073130;27;45679;-67
2021/11/05 05:59:30;;;;;;;;;1.50;0.75;;;;;;;;5076379;27;45530;-67
2021/11/05 06:01:55;;;;;;;;;1.67;1.33;;;;;;;;5075013;27;45437;-67
2021/11/05 06:04:21;;;;;;;;;1.00;1.00;;;;;;;;5072684;27;46318;-67
2021/11/05 06:06:47;;;;;;;;;3.00;1.00;;;;;;;;5074741;28;45330;-67
2021/11/05 06:09:12;;;;;;;;;7.00;2.00;;;;;;;;5071905;28;45725;-67
2021/11/05 06:11:37;;;;;;;;;2.00;2.00;;;;;;;;5071420;27;45419;-67
2021/11/05 06:14:02;;;;;;;;;2.00;1.00;;;;;;;;5055600;28;47183;-67
2021/11/05 06:16:28;;;;;;;;;1.75;1.75;;;;;;;;5059501;28;45422;-67
2021/11/05 06:18:53;;;;;;;;;3.00;1.25;;;;;;;;5084761;27;46803;-67
2021/11/05 06:21:23;;;;;;;;;3.67;1.33;;;;;;;;5092591;27;45297;-67
2021/11/05 06:23:48;;;;;;;;;4.00;2.00;;;;;;;;5083860;27;46824;-67
2021/11/05 06:26:13;;;;;;;;;1.00;1.00;;;;;;;;5085786;27;45470;-67
2021/11/05 06:28:38;;;;;;;;;1.33;1.33;;;;;;;;5079505;27;45562;-67
2021/11/05 06:31:04;;;;;;;;;1.00;1.00;;;;;;;;5081787;27;45450;-67
2021/11/05 06:33:29;;;;;;;;;3.00;2.00;;;;;;;;5091901;27;45354;-67
2021/11/05 06:35:54;;;;;;;;;1.00;1.00;;;;;;;;5085147;27;45412;-67
2021/11/05 06:38:19;;;;;;;;;2.67;2.67;;;;;;;;5090575;27;45447;-67
2021/11/05 06:40:45;;;;;;;;;4.00;2.50;;;;;;;;5090906;27;45626;-67
2021/11/05 06:43:10;;;;;;;;;6.33;3.33;;;;;;;;5077240;27;45522;-67
2021/11/05 06:45:35;;;;;;;;;2.00;2.00;;;;;;;;5077742;27;45556;-67
2021/11/05 06:48:00;;;;;;;;;2.00;2.00;;;;;;;;5078470;27;45487;-67
2021/11/05 06:50:26;;;;;;;;;2.00;2.00;;;;;;;;5082157;27;45405;-67
2021/11/05 06:52:51;;;;;;;;;1.50;1.00;;;;;;;;5088726;27;45577;-67
2021/11/05 06:55:16;;;;;;;;;1.33;0.67;;;;;;;;5077906;27;45483;-67
2021/11/05 06:57:42;;;;;;;;;1.25;1.25;;;;;;;;5081935;27;45330;-67
2021/11/05 07:00:08;;;;;;;;;3.25;3.00;;;;;;;;5080710;27;45481;-67
2021/11/05 07:02:40;;;;;;;;;3.25;2.00;;;;;;;;5084602;27;47041;-67
2021/11/05 07:05:05;;;;;;;;;2.00;2.00;;;;;;;;5079742;27;45657;-67
2021/11/05 07:07:30;;;;;;;;;5.50;2.50;;;;;;;;5078081;27;45397;-67
2021/11/05 07:09:57;;;;;;;;;4.00;3.00;;;;;;;;5080193;27;45523;-67
2021/11/05 07:12:22;;;;;;;;;2.00;2.00;;;;;;;;5089202;27;46260;-67
2021/11/05 07:14:47;;;;;;;;;3.00;3.00;;;;;;;;5076357;27;45538;-67
2021/11/05 07:17:12;;;;;;;;;1.00;1.00;;;;;;;;5078707;27;45382;-67
2021/11/05 07:19:38;;;;;;;;;3.00;1.00;;;;;;;;5070512;27;45470;-67
2021/11/05 07:22:03;;;;;;;;;3.50;2.00;;;;;;;;5071833;28;46325;-67
2021/11/05 07:24:33;;;;;;;;;3.00;1.75;;;;;;;;5070346;28;45463;-67
2021/11/05 07:26:59;;;;;;;;;1.75;1.00;;;;;;;;5060706;28;45453;-67
2021/11/05 07:29:27;;;;;;;;;1.00;1.00;;;;;;;;5029862;28;45575;-67
2021/11/05 07:31:54;;;;;;;;;1.00;1.00;;;;;;;;5051486;28;47257;-67
2021/11/05 07:34:19;;;;;;;;;4.00;1.25;;;;;;;;5064901;28;45633;-67
2021/11/05 07:36:44;;;;;;;;;5.33;2.33;;;;;;;;5057098;28;45424;-67
2021/11/05 07:39:09;;;;;;;;;2.25;1.50;;;;;;;;5066646;28;45643;-67
2021/11/05 07:41:35;;;;;;;;;3.67;3.67;;;;;;;;5065942;28;45449;-67
2021/11/05 07:44:00;;;;;;;;;1.50;1.50;;;;;;;;5057654;28;45533;-67
2021/11/05 07:46:27;;;;;;;;;3.00;1.00;;;;;;;;5056838;28;45503;-67
2021/11/05 07:48:52;;;;;;;;;1.75;1.75;;;;;;;;5062510;28;45346;-67
2021/11/05 07:51:17;;;;;;;;;2.00;1.00;;;;;;;;5066210;28;45595;-67
2021/11/05 07:53:42;;;;;;;;;2.00;2.00;;;;;;;;5061695;28;45371;-68
2021/11/05 07:56:08;;;;;;;;;1.67;1.00;;;;;;;;5054420;28;45419;-68
2021/11/05 07:58:33;;;;;;;;;3.25;2.00;;;;;;;;5049756;28;45546;-68
2021/11/05 08:00:58;;;;;;;;;4.00;2.00;;;;;;;;5065168;28;45500;-67
2021/11/05 08:03:23;;;;;;;;;4.33;3.67;;;;;;;;5058250;28;45434;-67
2021/11/05 08:05:49;;;;;;;;;4.00;3.00;;;;;;;;5053654;28;45478;-68
2021/11/05 08:08:14;;;;;;;;;3.00;2.75;;;;;;;;5059610;28;45540;-68
2021/11/05 08:10:40;;;;;;;;;2.00;2.00;;;;;;;;5054165;28;46160;-68
2021/11/05 08:13:05;;;;;;;;;2.75;2.00;;;;;;;;5052427;28;45399;-68
2021/11/05 08:15:31;;;;;;;;;2.00;2.00;;;;;;;;5058060;28;45489;-67
2021/11/05 08:17:56;;;;;;;;;4.67;3.00;;;;;;;;5056882;28;45506;-68
2021/11/05 08:20:21;;;;;;;;;2.00;2.00;;;;;;;;5074553;27;47024;-67
2021/11/05 08:22:47;;;;;;;;;5.50;3.25;;;;;;;;5079383;27;45507;-68
2021/11/05 08:25:13;;;;;;;;;2.50;2.00;;;;;;;;5085887;27;45606;-68
2021/11/05 08:27:39;;;;;;;;;3.75;3.00;;;;;;;;5077127;27;45465;-68
2021/11/05 08:30:12;;;;;;;;;4.75;2.00;;;;;;;;5078932;27;45495;-68
2021/11/05 08:32:37;;;;;;;;;5.75;2.75;;;;;;;;5077795;27;45467;-67
2021/11/05 08:35:04;;;;;;;;;2.75;2.50;;;;;;;;5076986;27;45642;-67
2021/11/05 08:37:29;;;;;;;;;2.00;2.00;;;;;;;;5082371;27;45617;-67
2021/11/05 08:39:54;;;;;;;;;14.67;11.67;;;;;;;;5087150;27;45422;-67
2021/11/05 08:42:20;;;;;;;;;9.00;9.00;;;;;;;;5077302;27;45506;-68
2021/11/05 08:44:45;;;;;;;;;20.25;19.50;;;;;;;;5078131;27;49598;-68
2021/11/05 08:47:11;;;;;;;;;5.00;4.33;;;;;;;;5080645;27;45887;-68
2021/11/05 08:49:36;;;;;;;;;7.75;4.25;;;;;;;;5077248;27;45443;-68
2021/11/05 08:52:01;;;;;;;;;7.00;3.00;;;;;;;;5076123;27;45496;-68
2021/11/05 08:54:27;;;;;;;;;178.33;151.00;;;;;;;;5079660;27;45448;-68
2021/11/05 08:56:52;;;;;;;;;36.50;26.00;;;;;;;;5078258;27;45414;-69
2021/11/05 08:59:19;;;;;;;;;35.75;30.25;;;;;;;;5077808;27;46995;-69
2021/11/05 09:01:44;;;;;;;;;11.75;8.50;;;;;;;;5090621;27;45772;-69
2021/11/05 09:04:11;;;;;;;;;10.67;10.00;;;;;;;;5075545;27;45553;-69
2021/11/05 09:06:37;;;;;;;;;20.25;19.50;;;;;;;;5080462;27;45323;-68
2021/11/05 09:09:03;;;;;;;;;10.50;5.25;;;;;;;;5084415;27;47135;-69
2021/11/05 09:11:29;;;;;;;;;3.00;2.25;;;;;;;;5076837;27;45812;-69
2021/11/05 09:13:55;;;;;;;;;5.50;4.50;;;;;;;;5078719;27;45363;-69
2021/11/05 09:16:20;;;;;;;;;9.50;9.50;;;;;;;;5088168;27;45981;-69
2021/11/05 09:18:45;;;;;;;;;19.00;15.67;;;;;;;;5083064;27;45630;-69
2021/11/05 09:21:11;;;;;;;;;14.50;12.25;;;;;;;;5085012;27;45289;-69
2021/11/05 09:23:37;;;;;;;;;10.25;10.25;;;;;;;;5079675;27;45481;-69
2021/11/05 09:26:02;;;;;;;;;24.25;21.75;;;;;;;;5079983;27;45533;-69
2021/11/05 09:28:29;;;;;;;;;7.00;3.00;;;;;;;;5075579;27;46560;-69
2021/11/05 09:30:54;;;;;;;;;5.67;3.00;;;;;;;;5078637;27;45400;-69
2021/11/05 09:33:19;;;;;;;;;4.33;3.67;;;;;;;;5078693;27;45366;-69
2021/11/05 09:35:45;;;;;;;;;4.75;3.25;;;;;;;;5077988;27;45405;-66
2021/11/05 09:38:11;;;;;;;;;6.50;5.00;;;;;;;;5070381;27;45534;-66
2021/11/05 09:40:36;;;;;;;;;3.00;2.00;;;;;;;;5077260;27;45468;-66
2021/11/05 09:43:02;;;;;;;;;5.75;3.75;;;;;;;;5076660;27;45393;-66
2021/11/05 09:45:30;;;;;;;;;5.00;3.67;;;;;;;;5079525;27;45411;-66
2021/11/05 09:47:56;;;;;;;;;3.75;3.00;;;;;;;;5075400;27;46662;-66
2021/11/05 09:50:22;;;;;;;;;5.00;4.00;;;;;;;;5076496;27;45483;-66
2021/11/05 09:52:47;;;;;;;;;3.75;3.00;;;;;;;;5073351;27;45652;-66
2021/11/05 09:55:13;;;;;;;;;4.00;3.00;;;;;;;;5084395;27;45543;-66
2021/11/05 09:57:39;;;;;;;;;3.00;3.00;;;;;;;;5079473;27;46434;-66
2021/11/05 10:00:05;;;;;;;;;2.67;2.67;;;;;;;;5077791;27;45519;-66
2021/11/05 10:02:30;;;;;;;;;5.50;3.00;;;;;;;;5077273;27;45439;-67
2021/11/05 10:04:58;;;;;;;;;4.67;4.67;;;;;;;;5077967;27;45408;-66
2021/11/05 10:07:23;;;;;;;;;4.25;4.00;;;;;;;;5073476;27;46356;-66
2021/11/05 10:09:53;;;;;;;;;2.67;2.67;;;;;;;;5091508;27;45557;-66
2021/11/05 10:12:20;;;;;;;;;2.75;2.00;;;;;;;;5084075;27;45598;-66
2021/11/05 10:14:52;;;;;;;;;5.25;2.25;;;;;;;;5080853;27;45436;-67
2021/11/05 10:17:19;;;;;;;;;0.50;0.25;;;;;;;;5081420;27;46490;-66
2021/11/05 10:19:46;;;;;;;;;4.25;4.00;;;;;;;;5077640;27;45618;-66
2021/11/05 10:22:31;;;;;;;;;2.00;2.00;;;;;;;;5090684;27;45541;-67
2021/11/05 10:25:14;;;;;;;;;4.25;4.25;;;;;;;;5091748;27;45388;-66
2021/11/05 10:27:40;;;;;;;;;6.25;5.00;;;;;;;;5061223;27;46511;-66
2021/11/05 10:30:06;;;;;;;;;5.00;4.00;;;;;;;;5073329;27;45290;-66
2021/11/05 10:32:31;;;;;;;;;227.75;189.25;;;;;;;;5080946;27;45495;-66
2021/11/05 10:34:59;;;;;;;;;5.67;2.00;;;;;;;;5084725;27;45220;-67
2021/11/05 10:37:27;;;;;;;;;1.00;1.00;;;;;;;;5079535;27;45511;-66
2021/11/05 10:39:56;;;;;;;;;3.50;1.75;;;;;;;;5076677;27;45734;-66
2021/11/05 10:42:35;;;;;;;;;69.25;52.75;;;;;;;;5083262;27;45340;-67
2021/11/05 10:45:20;;;;;;;;;10.75;7.75;;;;;;;;5072789;27;45484;-67
2021/11/05 10:47:58;;;;;;;;;6.50;5.00;;;;;;;;5072597;27;45645;-66
2021/11/05 10:50:38;;;;;;;;;6.00;6.00;;;;;;;;5071866;27;45656;-66
2021/11/05 10:53:07;;;;;;;;;4.50;3.00;;;;;;;;5072903;27;45412;-66
2021/11/05 10:55:41;;;;;;;;;5.25;4.00;;;;;;;;5104094;27;45449;-66
2021/11/05 10:58:07;;;;;;;;;3.50;3.50;;;;;;;;5070877;28;46088;-66
2021/11/05 11:00:32;;;;;;;;;5.00;4.00;;;;;;;;5072670;27;45479;-66
2021/11/05 11:03:11;;;;;;;;;4.00;2.50;;;;;;;;5072160;28;45313;-66
2021/11/05 11:05:43;;;;;;;;;11.00;9.00;;;;;;;;5073959;27;45483;-66
2021/11/05 11:08:20;;;;;;;;;18.25;18.25;;;;;;;;5083518;27;45567;-66
2021/11/05 11:10:46;;;;;;;;;4.75;3.00;;;;;;;;5081822;27;45761;-66
2021/11/05 11:13:37;;;;;;;;;3.75;3.25;;;;;;;;5059289;27;45303;-67
2021/11/05 11:16:04;;;;;;;;;6.50;6.50;;;;;;;;5080645;27;45414;-66
2021/11/05 11:18:30;;;;;;;;;4.00;2.00;;;;;;;;5081804;27;46293;-66
2021/11/05 11:20:55;;;;;;;;;1.00;1.00;;;;;;;;5077299;27;46959;-66
2021/11/05 11:23:21;;;;;;;;;3.00;1.00;;;;;;;;5083228;27;45672;-66
2021/11/05 11:25:46;;;;;;;;;3.25;2.50;;;;;;;;5079570;27;45436;-66
2021/11/05 11:28:11;;;;;;;;;4.75;4.75;;;;;;;;5076496;27;46094;-66
2021/11/05 11:30:36;;;;;;;;;1.67;1.67;;;;;;;;5080882;27;45354;-66
2021/11/05 11:33:02;;;;;;;;;4.67;3.00;;;;;;;;5080483;27;45301;-66
2021/11/05 11:35:27;;;;;;;;;4.50;1.00;;;;;;;;5076338;27;45252;-66
2021/11/05 11:37:52;;;;;;;;;4.67;4.00;;;;;;;;5081236;27;45374;-66
2021/11/05 11:40:18;;;;;;;;;2.00;2.00;;;;;;;;5076391;27;45410;-67
2021/11/05 11:42:43;;;;;;;;;3.33;2.00;;;;;;;;5077483;27;45537;-66
2021/11/05 11:45:10;;;;;;;;;3.75;2.00;;;;;;;;5088101;27;45446;-66
2021/11/05 11:47:43;;;;;;;;;2.25;2.00;;;;;;;;5079812;27;48417;-66
2021/11/05 11:50:22;;;;;;;;;3.00;1.00;;;;;;;;5078048;27;45797;-67
2021/11/05 11:53:02;;;;;;;;;3.00;2.00;;;;;;;;5089081;27;45602;-67
2021/11/05 11:55:28;;;;;;;;;3.50;1.75;;;;;;;;5073347;27;45526;-66
2021/11/05 11:58:16;;;;;;;;;7.00;4.00;;;;;;;;5077386;27;46395;-67
2021/11/05 12:00:43;;;;;;;;;5.75;3.00;;;;;;;;5069909;27;45459;-67
2021/11/05 12:03:11;;;;;;;;;3.75;3.75;;;;;;;;5069403;27;48754;-66
2021/11/05 12:05:41;;;;;;;;;3.75;3.75;;;;;;;;5075679;27;45403;-67
2021/11/05 12:08:13;;;;;;;;;4.00;2.75;;;;;;;;5072499;27;45690;-67
2021/11/05 12:10:39;;;;;;;;;3.00;1.75;;;;;;;;5074801;27;45428;-67
2021/11/05 12:13:23;;;;;;;;;3.50;3.00;;;;;;;;5055398;27;45490;-67
2021/11/05 12:16:07;;;;;;;;;1.75;1.75;;;;;;;;5105269;27;45777;-67
2021/11/05 12:18:32;;;;;;;;;2.00;2.00;;;;;;;;5063889;27;45639;-67
2021/11/05 12:21:16;;;;;;;;;8.00;2.00;;;;;;;;5034298;28;45495;-67
2021/11/05 12:23:41;;;;;;;;;2.25;2.25;;;;;;;;5041318;28;45633;-67
2021/11/05 12:26:06;;;;;;;;;4.00;4.00;;;;;;;;5037085;28;45467;-67
2021/11/05 12:28:39;;;;;;;;;5.33;2.33;;;;;;;;5056970;28;46529;-67
2021/11/05 12:31:24;;;;;;;;;5.75;5.25;;;;;;;;5049568;28;45898;-67
2021/11/05 12:33:49;;;;;;;;;7.00;3.75;;;;;;;;5066798;28;45777;-67
2021/11/05 12:36:14;;;;;;;;;3.00;2.00;;;;;;;;5038932;28;45407;-67
2021/11/05 12:39:02;;;;;;;;;4.25;2.00;;;;;;;;5028208;28;47540;-66
2021/11/05 12:41:28;;;;;;;;;3.00;2.00;;;;;;;;5053263;28;45860;-66
2021/11/05 12:43:54;;;;;;;;;2.50;2.00;;;;;;;;5045671;28;45571;-66
2021/11/05 12:46:20;;;;;;;;;4.00;2.25;;;;;;;;5044718;28;46007;-66
2021/11/05 12:48:48;;;;;;;;;2.25;2.00;;;;;;;;5048071;28;46503;-66
2021/11/05 12:51:15;;;;;;;;;16.00;14.25;;;;;;;;5039019;28;45780;-65
2021/11/05 12:53:42;;;;;;;;;8.50;7.75;;;;;;;;5048445;28;45360;-66
2021/11/05 12:56:08;;;;;;;;;2.00;2.00;;;;;;;;5045907;28;45564;-66
2021/11/05 12:58:35;;;;;;;;;1.00;1.00;;;;;;;;5049528;28;46479;-66
2021/11/05 13:01:01;;;;;;;;;2.00;2.00;;;;;;;;5065860;28;45404;-66
2021/11/05 13:03:27;;;;;;;;;117.00;101.00;;;;;;;;5049181;28;45368;-66
2021/11/05 13:05:57;;;;;;;;;3.00;1.00;;;;;;;;5047182;28;45562;-66
2021/11/05 13:08:29;;;;;;;;;2.50;2.00;;;;;;;;5050787;28;46771;-66
2021/11/05 13:11:01;;;;;;;;;4.25;4.00;;;;;;;;5044300;28;45616;-66
2021/11/05 13:13:26;;;;;;;;;4.00;3.00;;;;;;;;5049438;28;45454;-66
2021/11/05 13:15:52;;;;;;;;;2.00;1.00;;;;;;;;5042336;28;45765;-66
2021/11/05 13:18:17;;;;;;;;;1.67;1.67;;;;;;;;5026930;28;46543;-66
2021/11/05 13:20:44;;;;;;;;;3.33;2.67;;;;;;;;5066718;27;45521;-66
2021/11/05 13:23:11;;;;;;;;;4.00;1.25;;;;;;;;5070216;27;45449;-66
2021/11/05 13:25:47;;;;;;;;;3.50;1.50;;;;;;;;5083145;27;45471;-66
2021/11/05 13:28:16;;;;;;;;;4.00;2.00;;;;;;;;5102375;27;47000;-66
2021/11/05 13:30:47;;;;;;;;;25.75;18.50;;;;;;;;5076200;27;45761;-66
2021/11/05 13:33:14;;;;;;;;;2.00;2.00;;;;;;;;5069453;27;45425;-66
2021/11/05 13:35:49;;;;;;;;;4.00;2.00;;;;;;;;5072089;27;45335;-66
2021/11/05 13:38:15;;;;;;;;;3.50;3.00;;;;;;;;5073024;27;46687;-67
2021/11/05 13:40:45;;;;;;;;;2.00;2.00;;;;;;;;5074671;27;45527;-66
2021/11/05 13:43:11;;;;;;;;;3.75;2.00;;;;;;;;5086352;27;45635;-66
2021/11/05 13:45:43;;;;;;;;;2.25;2.00;;;;;;;;5075246;27;45447;-66
2021/11/05 13:48:13;;;;;;;;;2.00;2.00;;;;;;;;5076609;27;45521;-66
2021/11/05 13:50:38;;;;;;;;;9.00;8.50;;;;;;;;5077216;27;45372;-66
2021/11/05 13:53:04;;;;;;;;;7.33;6.33;;;;;;;;5077891;27;45313;-66
2021/11/05 13:55:29;;;;;;;;;10.50;8.75;;;;;;;;5074542;27;45418;-66
2021/11/05 13:57:55;;;;;;;;;28.00;25.33;;;;;;;;5088936;27;46373;-66
2021/11/05 14:00:20;;;;;;;;;15.00;14.00;;;;;;;;5078130;27;45498;-66
2021/11/05 14:02:47;;;;;;;;;5.75;5.00;;;;;;;;5079645;27;45650;-66
2021/11/05 14:05:12;;;;;;;;;7.25;5.75;;;;;;;;5077906;27;45653;-66
2021/11/05 14:07:38;;;;;;;;;4.33;3.00;;;;;;;;5078961;27;46372;-66
2021/11/05 14:10:04;;;;;;;;;2.67;2.00;;;;;;;;5076023;27;45376;-66
2021/11/05 14:12:29;;;;;;;;;2.00;2.00;;;;;;;;5079789;27;45271;-66
2021/11/05 14:14:55;;;;;;;;;3.50;2.00;;;;;;;;5073731;27;45434;-66
2021/11/05 14:17:24;;;;;;;;;3.00;3.00;;;;;;;;5075318;27;45585;-66
2021/11/05 14:19:51;;;;;;;;;2.50;2.50;;;;;;;;5076967;27;45445;-66
2021/11/05 14:22:16;;;;;;;;;1.75;1.75;;;;;;;;5072468;27;45393;-66
2021/11/05 14:24:52;;;;;;;;;1.75;1.75;;;;;;;;5079340;27;45345;-66
2021/11/05 14:27:29;;;;;;;;;2.00;1.00;;;;;;;;5076203;27;45759;-66
2021/11/05 14:29:56;;;;;;;;;3.25;2.25;;;;;;;;5080011;27;45696;-66
2021/11/05 14:32:38;;;;;;;;;2.00;2.00;;;;;;;;5075377;27;45349;-66
2021/11/05 14:35:06;;;;;;;;;3.25;3.00;;;;;;;;5075435;27;45487;-66
2021/11/05 14:37:41;;;;;;;;;3.75;3.75;;;;;;;;5076584;27;45440;-66